METAR Data
IDs: Format: Raw Decoded Include TAF

Data at: 1934 UTC 25 Sep 2020

KEZS 251915Z AUTO 21010KT 180V250 10SM CLR 26/15 A2982 RMK AO2 T02600150
KEZS 251855Z AUTO 18008KT 140V240 10SM CLR 26/15 A2983 RMK AO2 T02580153
KEZS 251835Z AUTO 20006KT 10SM CLR 26/16 A2984 RMK AO2 T02560155
KEZS 251815Z AUTO 19008KT 150V250 10SM CLR 26/16 A2985 RMK AO2 T02550156
KEZS 251755Z AUTO 21005KT 10SM CLR 26/16 A2985 RMK AO2 T02560163 10256 20162
KEZS 251735Z AUTO 19008KT 150V210 10SM CLR 25/16 A2986 RMK AO2 T02500160
KEZS 251715Z AUTO 21006G14KT 10SM CLR 24/16 A2987 RMK AO2 T02440156
KEZS 251655Z AUTO 18007KT 10SM CLR 24/17 A2987 RMK AO2 T02430165
KEZS 251635Z AUTO 22009G14KT 10SM CLR 24/16 A2988 RMK AO2 T02350159
KEZS 251615Z AUTO 23011G16KT 210V270 10SM SCT060 23/16 A2989 RMK AO2 T02310158
KEZS 251555Z AUTO 22006KT 10SM SCT060 22/16 A2990 RMK AO2 T02230162
KEZS 251535Z AUTO 22008KT 170V250 10SM CLR 22/16 A2990 RMK AO2 T02150159
KEZS 251515Z AUTO 19004KT 10SM CLR 21/16 A2990 RMK AO2 T02090161
KEZS 251455Z AUTO 19003KT 10SM CLR 20/16 A2991 RMK AO2 T02010164
KEZS 251435Z AUTO 21003KT 10SM SCT042 SCT050 19/16 A2991 RMK AO2 T01910161
KEZS 251415Z AUTO 22008KT 180V260 10SM BKN044 BKN050 19/16 A2991 RMK AO2 T01850159
KEZS 251355Z AUTO 23003KT 10SM BKN044 BKN050 18/17 A2991 RMK AO2 T01750170
KEZS 251335Z AUTO 00000KT 10SM BKN044 BKN050 17/17 A2991 RMK AO2 T01710170
KEZS 251315Z AUTO 00000KT 10SM SCT044 SCT049 17/16 A2991 RMK AO2 T01650163
KEZS 251255Z AUTO 21003KT 7SM SCT003 SCT042 BKN049 17/16 A2991 RMK AO2 T01650164
KEZS 251235Z AUTO 00000KT 5SM BR BKN003 BKN049 16/16 A2991 RMK AO2 T01620161
KEZS 251215Z AUTO 00000KT 4SM BR OVC003 17/16 A2990 RMK AO2 T01650163
KEZS 251155Z AUTO 00000KT 4SM BR OVC003 17/17 A2989 RMK AO2 70019 T01650165 10173 20165
KEZS 251135Z AUTO 00000KT 7SM OVC003 17/17 A2989 RMK AO2 T01660165
KEZS 251115Z AUTO 00000KT 5SM BR OVC003 17/17 A2990 RMK AO2 T01670166
KEZS 251055Z AUTO 20003KT 1 3/4SM BR OVC003 17/17 A2990 RMK AO2 T01680167
KEZS 251035Z AUTO 00000KT 1 1/2SM BR OVC003 17/17 A2990 RMK AO2 T01680167
KEZS 251015Z AUTO 00000KT 1SM BR OVC003 17/17 A2990 RMK AO2 T01680167
KEZS 250955Z AUTO 00000KT 1/2SM FG OVC003 17/17 A2989 RMK AO2 T01670166
KEZS 250935Z AUTO 00000KT 1/2SM FG OVC003 17/17 A2989 RMK AO2 T01670166
KEZS 250915Z AUTO 00000KT 1/2SM FG OVC003 17/17 A2989 RMK AO2 T01670166
KEZS 250855Z AUTO 00000KT 1/2SM FG OVC003 17/17 A2988 RMK AO2 T01670166
KEZS 250835Z AUTO 00000KT 1/2SM FG OVC003 17/17 A2988 RMK AO2 T01700168
KEZS 250815Z AUTO 00000KT 1/2SM FG OVC003 17/17 A2988 RMK AO2 T01700168
KEZS 250755Z AUTO 15003KT 3/4SM BR OVC003 17/17 A2988 RMK AO2 T01710170
KEZS 250735Z AUTO 00000KT 1SM BR OVC003 17/17 A2988 RMK AO2 T01670166
KEZS 250715Z AUTO 00000KT 1/2SM FG OVC005 17/17 A2988 RMK AO2 T01680167
KEZS 250655Z AUTO 00000KT 1SM BR OVC005 17/17 A2988 RMK AO2 VIS 1/2V2 1/2 T01680167
KEZS 250635Z AUTO 00000KT 3SM BR BKN005 OVC026 17/17 A2988 RMK AO2 T01700169
KEZS 250615Z AUTO 00000KT 4SM BR BKN005 OVC026 17/17 A2989 RMK AO2 T01720170
KEZS 250555Z AUTO 00000KT 5SM BR OVC003 17/17 A2988 RMK AO2 60003 T01730171 10173 20166 402160149
KEZS 250535Z AUTO 00000KT 4SM BR OVC003 17/17 A2989 RMK AO2 T01700169
KEZS 250515Z AUTO 00000KT 7SM OVC003 17/17 A2989 RMK AO2 T01710170
KEZS 250455Z AUTO 00000KT 5SM BR BKN003 OVC011 17/17 A2989 RMK AO2 T01700168
KEZS 250435Z AUTO 00000KT 5SM BR BKN003 OVC011 17/17 A2989 RMK AO2 T01700167
KEZS 250415Z AUTO 00000KT 5SM BR OVC003 17/17 A2989 RMK AO2 T01700168
KEZS 250355Z AUTO 00000KT 5SM BR OVC003 17/17 A2990 RMK AO2 T01680166
KEZS 250335Z AUTO 00000KT 5SM BR OVC005 17/17 A2990 RMK AO2 T01670165
KEZS 250315Z AUTO 10003KT 7SM OVC005 17/17 A2989 RMK AO2 T01700166
KEZS 250255Z AUTO 11003KT 7SM OVC005 17/17 A2989 RMK AO2 P0001 60003 T01710167
KEZS 250235Z AUTO 09004KT 7SM RA OVC005 17/17 A2989 RMK AO2 T01720168
KEZS 250215Z AUTO 00000KT 7SM OVC005 17/17 A2990 RMK AO2 T01730169
KEZS 250155Z AUTO 09004KT 7SM BKN005 OVC017 17/17 A2990 RMK AO2 T01720168
KEZS 250135Z AUTO 13003KT 10SM SCT005 OVC017 17/17 A2990 RMK AO2 T01700166
KEZS 250115Z AUTO 11003KT 10SM -DZ BKN017 BKN024 OVC050 17/17 A2990 RMK AO2 T01680165
KEZS 250055Z AUTO 09004KT 10SM -RA SCT025 BKN055 OVC075 17/16 A2989 RMK AO2 P0002 T01670163
KEZS 250035Z AUTO 11004KT 10SM -DZ SCT055 BKN075 OVC085 17/16 A2989 RMK AO2 P0002 T01670163
KEZS 250015Z AUTO 09003KT 10SM -RA BKN050 OVC065 17/17 A2989 RMK AO2 P0002 T01700165
KEZS 242355Z AUTO 00000KT 10SM -RA SCT046 OVC050 17/17 A2989 RMK AO2 P0009 60016 T01730166 10216 20173
KEZS 242335Z AUTO 17003KT 10SM RA BKN044 OVC050 18/17 A2989 RMK AO2 P0006 T01750166
KEZS 242315Z AUTO 17004G15KT 5SM RA SCT016 BKN043 OVC050 18/17 A2989 RMK AO2 P0003 T01760165
KEZS 242255Z AUTO 14011KT 4SM RA SCT014 BKN028 OVC055 18/17 A2989 RMK AO2 P0006 T01820168
KEZS 242235Z AUTO 12003KT 10SM -RA SCT034 BKN055 OVC095 19/17 A2989 RMK AO2 LTG DSNT SW T01900171
KEZS 242215Z AUTO 09006KT 10SM BKN034 BKN040 OVC095 19/17 A2987 RMK AO2 LTG DSNT SW T01930170
KEZS 242155Z AUTO 10003KT 10SM -DZ SCT034 BKN041 BKN050 20/17 A2987 RMK AO2 P0001 T01950169
KEZS 242135Z AUTO 07005KT 10SM -RA SCT034 SCT041 SCT050 20/17 A2986 RMK AO2 T02010166
KEZS 242115Z AUTO 08007KT 10SM CLR 21/17 A2986 RMK AO2 T02050165
KEZS 242055Z AUTO 07008KT 10SM SCT046 SCT050 21/17 A2987 RMK AO2 T02050166
KEZS 242035Z AUTO 08006KT 10SM SCT046 21/17 A2988 RMK AO2 T02110166
KEZS 242015Z AUTO 08005KT 10SM CLR 21/16 A2987 RMK AO2 T02120164
KEZS 241955Z AUTO 09005KT 10SM CLR 21/16 A2988 RMK AO2 T02120162
KEZS 241935Z AUTO 10004KT 10SM CLR 22/16 A2988 RMK AO2 T02160162
KEZS 241915Z AUTO 05004KT 10SM CLR 21/17 A2988 RMK AO2 T02100165
KEZS 241855Z AUTO 06005KT 10SM CLR 21/16 A2989 RMK AO2 T02060161
KEZS 241835Z AUTO 07005KT 10SM SCT050 SCT060 21/16 A2989 RMK AO2 T02080160
KEZS 241815Z AUTO 10004KT 10SM SCT050 21/16 A2989 RMK AO2 T02050157
KEZS 241755Z AUTO 10003KT 10SM SCT035 SCT042 SCT050 20/16 A2990 RMK AO2 T02010158 10203 20165
KEZS 241735Z AUTO 00000KT 10SM -RA SCT035 SCT042 SCT095 19/16 A2991 RMK AO2 LTG DSNT SW T01920157
KEZS 241715Z AUTO 11005KT 10SM CLR 20/15 A2990 RMK AO2 T01970153
KEZS 241655Z AUTO 12004KT 10SM CLR 20/16 A2991 RMK AO2 T02000156
KEZS 241635Z AUTO 11006KT 10SM CLR 20/15 A2991 RMK AO2 T02010153
KEZS 241615Z AUTO 10007KT 10SM CLR 19/15 A2990 RMK AO2 LTG DSNT SW T01920154
KEZS 241555Z AUTO 11007KT 10SM CLR 19/15 A2992 RMK AO2 LTG DSNT SW T01880151
KEZS 241535Z AUTO 12006KT 10SM CLR 19/15 A2992 RMK AO2 T01890153
KEZS 241515Z AUTO 11006KT 10SM SCT120 19/15 A2992 RMK AO2 T01850152
KEZS 241455Z AUTO 12006KT 10SM BKN120 18/15 A2992 RMK AO2 T01810152
KEZS 241435Z AUTO 14005KT 10SM CLR 18/15 A2992 RMK AO2 T01820153
KEZS 241415Z AUTO 13005KT 10SM SCT060 17/15 A2992 RMK AO2 T01720150
KEZS 241355Z AUTO 11004KT 10SM CLR 17/15 A2993 RMK AO2 T01710149
KEZS 241335Z AUTO 11005KT 10SM SCT055 SCT065 SCT080 17/15 A2992 RMK AO2 T01680148
KEZS 241315Z AUTO 10004KT 10SM BKN055 17/15 A2993 RMK AO2 T01680147
KEZS 241255Z AUTO 09005KT 10SM SCT055 17/15 A2992 RMK AO2 T01670147
KEZS 241235Z AUTO 09006KT 10SM SCT026 SCT095 17/15 A2991 RMK AO2 T01670147
KEZS 241215Z AUTO 06003KT 10SM BKN026 BKN095 17/15 A2992 RMK AO2 T01660145
KEZS 241155Z AUTO 02005KT 10SM BKN024 BKN050 OVC070 17/15 A2993 RMK AO2 T01670145 10175 20149
KEZS 241135Z AUTO 00000KT 10SM SCT050 BKN070 OVC090 16/14 A2992 RMK AO2 T01630139
KEZS 241115Z AUTO 11004KT 10SM SCT050 BKN070 OVC090 17/14 A2991 RMK AO2 LTG DSNT W T01680140
KEZS 241055Z AUTO 08005KT 10SM BKN048 BKN055 17/15 A2991 RMK AO2 T01720145
KEZS 241035Z AUTO 06007KT 10SM SCT050 SCT060 SCT085 17/15 A2990 RMK AO2 T01710145
KEZS 241015Z AUTO 07004KT 10SM SCT018 BKN060 OVC085 17/16 A2991 RMK AO2 LTG DSNT N T01710155
KEZS 240955Z AUTO 00000KT 10SM SCT018 BKN050 OVC085 17/16 A2991 RMK AO2 T01720159
KEZS 240935Z AUTO 05003KT 10SM SCT050 17/15 A2990 RMK AO2 T01730153
KEZS 240915Z AUTO 08004KT 10SM CLR 18/16 A2989 RMK AO2 LTG DSNT NW T01750160
KEZS 240855Z AUTO 00000KT 10SM CLR 17/16 A2990 RMK AO2 T01680164
KEZS 240835Z AUTO 00000KT 10SM CLR 16/15 A2991 RMK AO2 LTG DSNT NW T01600153
KEZS 240815Z AUTO 00000KT 10SM CLR 17/16 A2991 RMK AO2 T01680159
KEZS 240755Z AUTO 00000KT 10SM SCT080 17/15 A2991 RMK AO2 T01650153
KEZS 240735Z AUTO 00000KT 10SM BKN080 16/15 A2991 RMK AO2 T01570146